createdAt,value
2023-03-29T00:02:53.961Z,28.03
2023-03-29T00:06:54.853Z,28.08
2023-03-29T00:10:54.878Z,28.01
2023-03-29T00:14:54.910Z,28.04
2023-03-29T00:18:55.881Z,27.96
2023-03-29T00:22:55.186Z,27.91
2023-03-29T00:26:55.224Z,27.85
2023-03-29T00:30:55.307Z,27.85
2023-03-29T00:34:55.272Z,27.82
2023-03-29T00:38:55.265Z,27.76
2023-03-29T00:42:55.282Z,27.77
2023-03-29T00:46:55.513Z,27.80
2023-03-29T00:50:55.562Z,27.71
2023-03-29T00:54:55.564Z,27.74
2023-03-29T00:58:55.586Z,27.73
2023-03-29T01:02:55.683Z,27.69
2023-03-29T01:06:55.739Z,27.73
2023-03-29T01:10:55.641Z,27.69
2023-03-29T01:14:55.864Z,27.71
2023-03-29T01:18:55.899Z,27.71
2023-03-29T01:22:55.949Z,27.72
2023-03-29T01:26:55.943Z,27.69
2023-03-29T01:30:55.967Z,27.67
2023-03-29T01:34:56.005Z,27.67
2023-03-29T01:38:56.058Z,27.68
2023-03-29T01:42:56.241Z,27.65
2023-03-29T01:46:56.243Z,27.65
2023-03-29T01:50:56.267Z,27.64
2023-03-29T01:54:56.314Z,27.63
2023-03-29T01:58:56.330Z,27.65
2023-03-29T02:02:56.550Z,27.68
2023-03-29T02:06:56.356Z,27.69
2023-03-29T02:10:56.523Z,27.64
2023-03-29T02:14:56.717Z,27.65
2023-03-29T02:18:56.949Z,27.67
2023-03-29T02:22:57.146Z,27.64
2023-03-29T02:26:57.412Z,27.68
2023-03-29T02:30:57.705Z,27.71
2023-03-29T02:34:57.685Z,27.72
2023-03-29T02:38:57.694Z,27.72
2023-03-29T02:42:57.759Z,27.72
2023-03-29T02:46:57.796Z,27.67
2023-03-29T02:50:57.760Z,27.76
2023-03-29T02:54:57.762Z,27.72
2023-03-29T02:58:57.881Z,27.72
2023-03-29T03:03:00.553Z,27.72
2023-03-29T03:06:57.875Z,27.70
2023-03-29T03:14:57.211Z,27.68
2023-03-29T03:22:57.201Z,27.64
2023-03-29T03:30:57.273Z,27.55
2023-03-29T03:38:57.285Z,27.50
2023-03-29T03:46:57.559Z,27.43
2023-03-29T03:54:58.029Z,27.33
2023-03-29T04:02:58.593Z,27.33
2023-03-29T04:10:23.640Z,27.23
2023-03-29T04:14:24.570Z,27.20
2023-03-29T04:18:24.605Z,27.12
2023-03-29T04:22:24.390Z,27.08
2023-03-29T04:26:24.332Z,27.03
2023-03-29T04:30:24.250Z,27.05
2023-03-29T04:34:24.198Z,27.04
2023-03-29T04:38:24.399Z,27.03
2023-03-29T04:42:24.569Z,27.01
2023-03-29T04:46:24.814Z,27.05
2023-03-29T04:50:25.090Z,27.06
2023-03-29T04:54:25.242Z,27.02
2023-03-29T04:58:29.582Z,27.05
2023-03-29T05:02:25.388Z,26.99
2023-03-29T05:06:25.421Z,27.02
2023-03-29T05:10:25.288Z,26.79
2023-03-29T05:14:25.188Z,26.57
2023-03-29T05:18:25.112Z,26.47
2023-03-29T05:22:25.107Z,27.22
2023-03-29T05:26:25.041Z,27.46
2023-03-29T05:30:24.986Z,27.51
2023-03-29T05:34:25.439Z,27.59
2023-03-29T05:38:24.906Z,25.15
2023-03-29T05:42:24.960Z,27.21
2023-03-29T05:46:24.976Z,27.75
2023-03-29T05:50:25.446Z,28.17
2023-03-29T05:54:24.853Z,28.34
2023-03-29T05:58:25.526Z,28.79
2023-03-29T06:02:25.813Z,28.80
2023-03-29T06:06:25.432Z,28.60
2023-03-29T06:10:25.447Z,28.25
2023-03-29T06:14:25.924Z,27.69
2023-03-29T06:18:26.022Z,27.51
2023-03-29T06:22:33.373Z,27.63
2023-03-29T06:26:25.982Z,26.98
2023-03-29T06:30:25.533Z,26.72
2023-03-29T06:34:26.100Z,26.15
2023-03-29T06:38:25.954Z,25.67
2023-03-29T06:42:25.601Z,26.30
2023-03-29T06:46:25.527Z,27.45
2023-03-29T06:50:26.095Z,28.11
2023-03-29T06:54:25.980Z,28.51
2023-03-29T06:58:25.994Z,28.77
2023-03-29T07:02:26.817Z,28.04
2023-03-29T07:06:25.965Z,26.85
2023-03-29T07:10:26.093Z,26.42
2023-03-29T07:14:26.000Z,26.68
2023-03-29T07:18:25.946Z,26.60
2023-03-29T07:22:25.965Z,26.71
2023-03-29T07:26:29.029Z,26.60
2023-03-29T07:30:26.072Z,26.81
2023-03-29T07:34:26.034Z,26.67
2023-03-29T07:38:27.023Z,26.92
2023-03-29T07:42:26.689Z,27.09
2023-03-29T07:46:26.612Z,26.73
2023-03-29T07:50:26.548Z,26.79
2023-03-29T07:54:26.468Z,27.14
2023-03-29T07:58:26.455Z,28.04
2023-03-29T08:02:26.520Z,28.43
2023-03-29T08:06:26.963Z,29.08
2023-03-29T08:10:27.014Z,29.37
2023-03-29T08:14:26.490Z,29.42
2023-03-29T08:18:26.886Z,29.69
2023-03-29T08:22:26.287Z,29.92
2023-03-29T08:26:26.469Z,29.90
2023-03-29T08:30:26.559Z,30.20
2023-03-29T08:34:26.426Z,30.10
2023-03-29T08:38:26.908Z,30.45
2023-03-29T08:42:27.012Z,30.36
2023-03-29T08:46:33.106Z,30.15
2023-03-29T08:50:26.639Z,30.30
2023-03-29T08:54:25.622Z,30.40
2023-03-29T08:58:26.526Z,30.62
2023-03-29T09:02:27.019Z,30.66
2023-03-29T09:06:27.003Z,30.48
2023-03-29T09:10:26.983Z,30.54
2023-03-29T09:14:27.117Z,30.70
2023-03-29T09:18:27.024Z,30.81
2023-03-29T09:22:26.804Z,30.76
2023-03-29T09:26:27.136Z,30.70
2023-03-29T09:30:27.014Z,30.72
2023-03-29T09:34:26.985Z,30.60
2023-03-29T09:38:26.882Z,30.55
2023-03-29T09:42:26.992Z,30.37
2023-03-29T09:46:27.011Z,30.45
2023-03-29T09:50:31.318Z,30.25
2023-03-29T09:54:27.116Z,30.14
2023-03-29T09:58:26.528Z,30.14
2023-03-29T10:02:26.581Z,30.07
2023-03-29T10:06:26.628Z,30.13
2023-03-29T10:10:26.555Z,30.41
2023-03-29T10:14:26.537Z,30.57
2023-03-29T10:18:25.933Z,30.64
2023-03-29T10:22:26.176Z,30.57
2023-03-29T10:26:26.064Z,30.71
2023-03-29T10:30:26.034Z,30.89
2023-03-29T10:34:26.275Z,30.91
2023-03-29T10:38:25.442Z,31.22
2023-03-29T10:42:25.570Z,31.25
2023-03-29T10:46:25.553Z,31.44
2023-03-29T10:50:25.521Z,31.49
2023-03-29T10:54:25.545Z,31.59
2023-03-29T10:58:25.611Z,31.56
2023-03-29T11:02:25.619Z,31.73
2023-03-29T11:06:25.556Z,31.72
2023-03-29T11:10:25.544Z,31.91
2023-03-29T11:14:25.404Z,32.03
2023-03-29T11:18:25.554Z,32.21
2023-03-29T11:22:25.558Z,31.74
2023-03-29T11:26:25.579Z,29.81
2023-03-29T11:30:25.295Z,29.19
2023-03-29T11:34:25.598Z,28.65
2023-03-29T11:38:25.581Z,28.87
2023-03-29T11:42:26.798Z,28.43
2023-03-29T11:46:26.096Z,28.12
2023-03-29T11:50:26.104Z,28.57
2023-03-29T11:54:26.047Z,28.36
2023-03-29T11:58:26.074Z,29.06
2023-03-29T12:02:26.190Z,28.99
2023-03-29T12:06:26.094Z,29.53
2023-03-29T12:10:25.720Z,29.62
2023-03-29T12:14:27.826Z,29.95
2023-03-29T12:18:26.084Z,30.25
2023-03-29T12:22:25.571Z,30.62
2023-03-29T12:26:25.552Z,30.75
2023-03-29T12:30:25.552Z,30.94
2023-03-29T12:34:25.582Z,31.04
2023-03-29T12:38:26.054Z,31.21
2023-03-29T12:42:25.556Z,31.40
2023-03-29T12:46:25.667Z,31.50
2023-03-29T12:50:25.655Z,31.64
2023-03-29T12:54:27.558Z,31.96
2023-03-29T12:58:25.093Z,31.57
2023-03-29T13:02:25.184Z,31.60
2023-03-29T13:06:25.091Z,32.05
2023-03-29T13:10:24.787Z,32.39
2023-03-29T13:14:25.087Z,32.71
2023-03-29T13:18:25.075Z,32.72
2023-03-29T13:22:25.102Z,32.61
2023-03-29T13:26:24.556Z,32.52
2023-03-29T13:30:25.075Z,32.28
2023-03-29T13:34:24.947Z,32.08
2023-03-29T13:38:26.114Z,31.95
2023-03-29T13:42:25.326Z,31.76
2023-03-29T13:46:25.671Z,31.58
2023-03-29T13:50:26.111Z,31.58
2023-03-29T13:54:25.934Z,31.52
2023-03-29T13:58:26.103Z,31.41
2023-03-29T14:02:26.171Z,31.38
2023-03-29T14:06:26.122Z,31.35
2023-03-29T14:10:26.175Z,31.26
2023-03-29T14:14:26.121Z,31.21
2023-03-29T14:18:25.619Z,31.16
2023-03-29T14:22:25.526Z,31.20
2023-03-29T14:26:25.618Z,31.00
2023-03-29T14:30:25.683Z,31.01
2023-03-29T14:34:25.624Z,30.97
2023-03-29T14:38:25.432Z,31.09
2023-03-29T14:42:26.159Z,31.01
2023-03-29T14:46:25.610Z,30.91
2023-03-29T14:50:25.621Z,30.82
2023-03-29T14:54:25.554Z,30.78
2023-03-29T14:58:25.520Z,30.80
2023-03-29T15:02:25.581Z,30.88
2023-03-29T15:06:25.610Z,30.88
2023-03-29T15:10:25.568Z,30.94
2023-03-29T15:14:25.539Z,30.94
2023-03-29T15:18:25.584Z,30.89
2023-03-29T15:22:25.661Z,30.79
2023-03-29T15:26:25.429Z,30.71
2023-03-29T15:30:25.667Z,30.66
2023-03-29T15:34:25.398Z,30.60
2023-03-29T15:38:33.381Z,30.62
2023-03-29T15:42:25.483Z,30.54
2023-03-29T15:46:25.490Z,30.60
2023-03-29T15:50:25.445Z,30.53
2023-03-29T15:54:25.363Z,30.47
2023-03-29T15:58:25.342Z,30.49
2023-03-29T16:02:25.493Z,30.44
2023-03-29T16:06:25.479Z,30.42
2023-03-29T16:10:25.396Z,30.40
2023-03-29T16:14:25.449Z,30.39
2023-03-29T16:18:25.345Z,30.36
2023-03-29T16:22:25.307Z,30.34
2023-03-29T16:26:25.234Z,30.39
2023-03-29T16:30:25.212Z,30.37
2023-03-29T16:34:25.156Z,30.35
2023-03-29T16:38:25.164Z,30.35
2023-03-29T16:42:25.061Z,30.33
2023-03-29T16:46:25.079Z,30.31
2023-03-29T16:50:25.056Z,30.29
2023-03-29T16:54:24.963Z,30.29
2023-03-29T16:58:24.889Z,30.27
2023-03-29T17:02:25.012Z,30.27
2023-03-29T17:06:24.991Z,30.23
2023-03-29T17:10:24.931Z,30.24
2023-03-29T17:14:24.875Z,30.25
2023-03-29T17:18:24.863Z,30.24
2023-03-29T17:22:24.852Z,30.20
2023-03-29T17:26:24.825Z,30.22
2023-03-29T17:30:24.760Z,30.17
2023-03-29T17:34:24.708Z,30.18
2023-03-29T17:38:24.661Z,30.16
2023-03-29T17:42:24.560Z,30.10
2023-03-29T17:46:24.649Z,30.09
2023-03-29T17:50:24.484Z,30.10
2023-03-29T17:54:24.468Z,30.12
2023-03-29T17:58:24.426Z,30.05
2023-03-29T18:02:24.687Z,30.05
2023-03-29T18:06:24.649Z,30.08
2023-03-29T18:10:24.668Z,30.06
2023-03-29T18:14:24.712Z,30.01
2023-03-29T18:18:25.175Z,30.01
2023-03-29T18:22:24.904Z,29.98
2023-03-29T18:26:24.835Z,30.02
2023-03-29T18:30:24.787Z,29.98
2023-03-29T18:34:24.796Z,29.98
2023-03-29T18:38:24.853Z,29.97
2023-03-29T18:42:24.888Z,29.95
2023-03-29T18:46:24.939Z,29.91
2023-03-29T18:50:24.807Z,29.94
2023-03-29T18:54:24.800Z,29.93
2023-03-29T18:58:24.780Z,29.91
2023-03-29T19:02:24.790Z,29.90
2023-03-29T19:06:24.746Z,29.87
2023-03-29T19:10:24.864Z,29.86
2023-03-29T19:14:24.804Z,29.83
2023-03-29T19:18:24.785Z,29.86
2023-03-29T19:22:24.776Z,29.83
2023-03-29T19:26:24.839Z,29.83
2023-03-29T19:30:24.848Z,29.84
2023-03-29T19:34:24.811Z,29.77
2023-03-29T19:38:24.816Z,29.76
2023-03-29T19:42:24.890Z,29.72
2023-03-29T19:46:24.875Z,29.68
2023-03-29T19:50:24.833Z,29.72
2023-03-29T19:54:24.798Z,29.70
2023-03-29T19:58:24.855Z,29.68
2023-03-29T20:02:24.885Z,29.66
2023-03-29T20:06:24.877Z,29.66
2023-03-29T20:10:24.860Z,29.68
2023-03-29T20:14:24.841Z,29.69
2023-03-29T20:18:24.993Z,29.63
2023-03-29T20:22:24.882Z,29.64
2023-03-29T20:26:24.899Z,29.61
2023-03-29T20:30:24.869Z,29.60
2023-03-29T20:34:24.893Z,29.54
2023-03-29T20:38:24.912Z,29.47
2023-03-29T20:42:24.911Z,29.49
2023-03-29T20:46:24.911Z,29.49
2023-03-29T20:50:24.939Z,29.45
2023-03-29T20:54:25.034Z,29.50
2023-03-29T20:58:25.065Z,29.48
2023-03-29T21:02:25.093Z,29.50
2023-03-29T21:06:25.079Z,29.45
2023-03-29T21:10:25.135Z,29.48
2023-03-29T21:14:25.102Z,29.45
2023-03-29T21:18:25.074Z,29.49
2023-03-29T21:22:25.140Z,29.49
2023-03-29T21:26:25.169Z,29.46
2023-03-29T21:30:25.104Z,29.44
2023-03-29T21:34:25.106Z,29.45
2023-03-29T21:38:25.514Z,29.47
2023-03-29T21:42:25.181Z,29.44
2023-03-29T21:46:25.248Z,29.42
2023-03-29T21:50:25.293Z,29.46
2023-03-29T21:54:25.293Z,29.41
2023-03-29T21:58:25.339Z,29.45
2023-03-29T22:02:25.341Z,29.39
2023-03-29T22:06:25.346Z,29.44
2023-03-29T22:10:25.410Z,29.37
2023-03-29T22:14:25.454Z,29.41
2023-03-29T22:18:25.424Z,29.39
2023-03-29T22:22:25.428Z,29.38
2023-03-29T22:26:25.443Z,29.39
2023-03-29T22:30:25.532Z,29.42
2023-03-29T22:34:25.469Z,29.39
2023-03-29T22:38:25.510Z,29.41
2023-03-29T22:42:25.500Z,29.35
2023-03-29T22:46:25.548Z,29.37
2023-03-29T22:50:25.567Z,29.32
2023-03-29T22:54:25.529Z,29.35
2023-03-29T22:58:25.538Z,29.32
2023-03-29T23:02:25.506Z,29.32
